createdAt,value
2018-05-27T00:00:14.030Z,14.17
2018-05-27T00:02:41.721Z,14.14
2018-05-27T00:05:09.406Z,14.04
2018-05-27T00:07:37.072Z,13.99
2018-05-27T00:10:04.730Z,14.04
2018-05-27T00:12:32.422Z,14.07
2018-05-27T00:15:00.091Z,14.10
2018-05-27T00:17:27.748Z,14.03
2018-05-27T00:19:55.420Z,13.93
2018-05-27T00:22:23.098Z,13.96
2018-05-27T00:24:50.746Z,13.85
2018-05-27T00:27:18.384Z,13.90
2018-05-27T00:29:46.024Z,13.93
2018-05-27T00:32:13.669Z,13.94
2018-05-27T00:34:41.314Z,14.00
2018-05-27T00:37:08.939Z,14.05
2018-05-27T00:39:36.621Z,14.06
2018-05-27T00:42:04.263Z,14.05
2018-05-27T00:44:31.905Z,14.08
2018-05-27T00:46:59.557Z,14.08
2018-05-27T00:49:27.206Z,14.05
2018-05-27T00:51:54.864Z,14.04
2018-05-27T00:54:22.498Z,14.06
2018-05-27T00:56:50.185Z,14.05
2018-05-27T00:59:17.835Z,14.15
2018-05-27T01:01:45.510Z,14.18
2018-05-27T01:04:13.170Z,14.24
2018-05-27T01:06:40.830Z,14.31
2018-05-27T01:09:08.477Z,14.39
2018-05-27T01:11:36.155Z,14.33
2018-05-27T01:14:03.794Z,14.33
2018-05-27T01:16:31.440Z,14.32
2018-05-27T01:18:59.100Z,14.28
2018-05-27T01:21:26.778Z,14.39
2018-05-27T01:23:54.456Z,14.39
2018-05-27T01:26:22.112Z,14.44
2018-05-27T01:28:49.809Z,14.49
2018-05-27T01:31:17.479Z,14.39
2018-05-27T01:33:45.127Z,14.46
2018-05-27T01:36:12.812Z,14.43
2018-05-27T01:38:40.456Z,14.55
2018-05-27T01:41:08.080Z,14.57
2018-05-27T01:43:35.727Z,14.66
2018-05-27T01:46:03.400Z,14.64
2018-05-27T01:48:31.065Z,14.66
2018-05-27T01:50:58.824Z,14.69
2018-05-27T01:53:26.466Z,14.69
2018-05-27T01:55:54.158Z,14.65
2018-05-27T01:58:21.822Z,14.64
2018-05-27T02:00:49.480Z,14.61
2018-05-27T02:03:17.121Z,14.57
2018-05-27T02:05:44.789Z,14.67
2018-05-27T02:08:12.461Z,14.68
2018-05-27T02:10:40.117Z,14.71
2018-05-27T02:13:07.768Z,14.72
2018-05-27T02:15:35.433Z,14.76
2018-05-27T02:18:03.105Z,14.78
2018-05-27T02:20:30.763Z,14.88
2018-05-27T02:22:58.421Z,14.77
2018-05-27T02:25:26.143Z,14.54
2018-05-27T02:27:53.788Z,14.57
2018-05-27T02:30:21.457Z,14.58
2018-05-27T02:32:49.103Z,14.68
2018-05-27T02:35:16.849Z,14.55
2018-05-27T02:37:44.494Z,14.59
2018-05-27T02:40:12.151Z,14.51
2018-05-27T02:42:39.818Z,14.57
2018-05-27T02:45:07.466Z,14.41
2018-05-27T02:47:35.116Z,14.54
2018-05-27T02:50:02.771Z,14.52
2018-05-27T02:52:30.471Z,14.66
2018-05-27T02:54:58.118Z,14.60
2018-05-27T02:57:25.784Z,14.64
2018-05-27T02:59:53.433Z,14.70
2018-05-27T03:02:21.086Z,14.68
2018-05-27T03:04:48.738Z,14.69
2018-05-27T03:07:16.370Z,14.68
2018-05-27T03:09:44.103Z,14.65
2018-05-27T03:12:11.931Z,14.56
2018-05-27T03:14:40.091Z,14.63
2018-05-27T03:17:07.743Z,14.75
2018-05-27T03:19:35.420Z,14.74
2018-05-27T03:22:03.083Z,14.64
2018-05-27T03:24:30.759Z,14.73
2018-05-27T03:26:58.427Z,14.80
2018-05-27T03:29:26.096Z,14.88
2018-05-27T03:31:53.733Z,14.86
2018-05-27T03:34:21.378Z,14.78
2018-05-27T03:36:49.019Z,14.82
2018-05-27T03:39:16.726Z,14.86
2018-05-27T03:41:44.405Z,14.82
2018-05-27T03:44:12.065Z,14.79
2018-05-27T03:46:39.704Z,14.92
2018-05-27T03:49:07.346Z,14.90
2018-05-27T03:51:35.018Z,14.94
2018-05-27T03:54:02.731Z,14.96
2018-05-27T03:56:30.373Z,14.91
2018-05-27T03:58:58.914Z,14.98
2018-05-27T04:01:26.576Z,15.09
2018-05-27T04:07:06.809Z,15.04
2018-05-27T04:09:34.454Z,15.12
2018-05-27T04:12:02.118Z,15.16
2018-05-27T04:14:29.777Z,15.20
2018-05-27T04:16:57.421Z,15.11
2018-05-27T04:19:25.067Z,15.14
2018-05-27T04:21:57.850Z,15.19
2018-05-27T04:24:25.538Z,15.21
2018-05-27T04:26:53.187Z,15.10
2018-05-27T04:29:20.836Z,15.17
2018-05-27T04:31:48.644Z,15.15
2018-05-27T04:34:29.491Z,15.14
2018-05-27T04:37:09.902Z,15.20
2018-05-27T04:39:56.581Z,15.16
2018-05-27T04:42:35.961Z,15.24
2018-05-27T04:45:19.670Z,15.27
2018-05-27T04:48:03.840Z,15.19
2018-05-27T04:50:45.968Z,15.13
2018-05-27T04:53:30.042Z,15.26
2018-05-27T04:56:04.127Z,15.20
2018-05-27T04:58:31.766Z,15.20
2018-05-27T05:01:18.376Z,15.28
2018-05-27T05:04:00.959Z,15.35
2018-05-27T05:06:45.988Z,15.29
2018-05-27T05:09:19.348Z,15.12
2018-05-27T05:12:12.237Z,15.19
2018-05-27T05:14:59.630Z,15.25
2018-05-27T05:17:27.364Z,15.25
2018-05-27T05:20:17.489Z,15.22
2018-05-27T05:23:08.260Z,15.11
2018-05-27T05:25:51.928Z,15.04
2018-05-27T05:28:34.417Z,15.16
2018-05-27T05:31:17.106Z,15.26
2018-05-27T05:33:54.883Z,15.23
2018-05-27T05:36:34.841Z,15.32
2018-05-27T05:39:16.086Z,15.41
2018-05-27T05:41:52.799Z,15.41
2018-05-27T05:44:41.271Z,15.30
2018-05-27T05:47:29.998Z,15.34
2018-05-27T05:50:16.085Z,15.42
2018-05-27T05:52:56.285Z,15.35
2018-05-27T05:55:37.191Z,15.30
2018-05-27T05:58:16.983Z,15.29
2018-05-27T06:00:59.511Z,15.22
2018-05-27T06:03:38.378Z,15.42
2018-05-27T06:06:06.049Z,15.49
2018-05-27T06:08:47.596Z,15.57
2018-05-27T06:11:15.223Z,15.62
2018-05-27T06:16:45.532Z,15.71
2018-05-27T06:19:26.590Z,15.77
2018-05-27T06:22:15.839Z,15.83
2018-05-27T06:24:56.390Z,15.92
2018-05-27T06:27:36.955Z,15.91
2018-05-27T06:30:17.358Z,15.92
2018-05-27T06:32:56.810Z,15.80
2018-05-27T06:35:43.635Z,15.73
2018-05-27T06:38:29.305Z,15.78
2018-05-27T06:41:14.538Z,15.83
2018-05-27T06:43:42.218Z,16.10
2018-05-27T06:46:09.859Z,16.17
2018-05-27T06:48:37.517Z,16.16
2018-05-27T06:51:05.156Z,16.12
2018-05-27T06:53:32.783Z,16.11
2018-05-27T06:56:00.416Z,16.22
2018-05-27T06:58:28.081Z,16.17
2018-05-27T07:00:55.746Z,16.12
2018-05-27T07:03:23.394Z,16.31
2018-05-27T07:05:51.040Z,16.29
2018-05-27T07:08:18.701Z,16.45
2018-05-27T07:10:46.355Z,16.38
2018-05-27T07:13:13.986Z,16.61
2018-05-27T07:15:41.634Z,16.66
2018-05-27T07:18:09.843Z,16.65
2018-05-27T07:20:37.523Z,16.50
2018-05-27T07:23:05.182Z,16.59
2018-05-27T07:25:32.933Z,16.88
2018-05-27T07:28:00.596Z,16.98
2018-05-27T07:30:28.271Z,17.05
2018-05-27T07:32:55.921Z,17.08
2018-05-27T07:35:23.566Z,17.18
2018-05-27T07:37:51.325Z,17.01
2018-05-27T07:40:18.962Z,16.88
2018-05-27T07:42:46.618Z,16.89
2018-05-27T07:45:14.247Z,16.95
2018-05-27T07:47:41.902Z,16.95
2018-05-27T07:50:09.544Z,16.89
2018-05-27T07:52:37.230Z,16.99
2018-05-27T07:55:04.899Z,16.96
2018-05-27T07:57:34.543Z,17.15
2018-05-27T08:00:02.185Z,17.30
2018-05-27T08:02:29.833Z,17.28
2018-05-27T08:04:57.479Z,17.31
2018-05-27T08:07:25.138Z,17.33
2018-05-27T08:09:52.806Z,17.31
2018-05-27T08:12:20.463Z,17.44
2018-05-27T08:14:48.147Z,17.45
2018-05-27T08:17:15.788Z,17.46
2018-05-27T08:19:43.511Z,17.64
2018-05-27T08:22:11.170Z,17.70
2018-05-27T08:24:38.829Z,17.69
2018-05-27T08:27:06.471Z,17.51
2018-05-27T08:29:34.119Z,17.48
2018-05-27T08:32:01.759Z,17.50
2018-05-27T08:34:29.509Z,17.58
2018-05-27T08:36:57.139Z,17.70
2018-05-27T08:39:24.850Z,18.27
2018-05-27T08:41:52.887Z,18.64
2018-05-27T08:44:20.534Z,19.10
2018-05-27T08:46:48.194Z,19.14
2018-05-27T08:49:18.869Z,18.81
2018-05-27T08:51:46.707Z,19.37
2018-05-27T08:54:14.421Z,20.85
2018-05-27T08:56:42.344Z,21.45
2018-05-27T08:59:10.242Z,20.57
2018-05-27T09:01:38.068Z,21.14
2018-05-27T09:04:06.185Z,22.36
2018-05-27T09:06:34.048Z,22.06
2018-05-27T09:09:01.756Z,22.14
2018-05-27T09:11:30.043Z,21.62
2018-05-27T09:13:57.685Z,21.50
2018-05-27T09:16:25.421Z,21.83
2018-05-27T09:18:53.082Z,21.10
2018-05-27T09:21:20.764Z,20.84
2018-05-27T09:23:48.435Z,20.93
2018-05-27T09:26:16.710Z,21.16
2018-05-27T09:28:44.413Z,21.52
2018-05-27T09:31:12.088Z,21.15
2018-05-27T09:33:40.198Z,21.15
2018-05-27T09:36:07.823Z,20.31
2018-05-27T09:38:37.573Z,20.75
2018-05-27T09:41:06.297Z,21.30
2018-05-27T09:43:33.974Z,20.74
2018-05-27T09:46:01.978Z,20.30
2018-05-27T09:48:29.643Z,21.02
2018-05-27T09:50:57.305Z,21.32
2018-05-27T09:53:24.966Z,21.54
2018-05-27T09:55:52.667Z,21.75
2018-05-27T09:58:21.026Z,22.02
2018-05-27T10:00:48.756Z,22.24
2018-05-27T10:03:16.385Z,21.96
2018-05-27T10:05:44.070Z,21.79
2018-05-27T10:08:14.648Z,22.42
2018-05-27T10:10:42.373Z,22.46
2018-05-27T10:13:10.010Z,22.40
2018-05-27T10:15:38.055Z,22.57
2018-05-27T10:18:05.681Z,22.67
2018-05-27T10:20:33.363Z,23.01
2018-05-27T10:23:01.335Z,23.13
2018-05-27T10:25:33.191Z,23.15
2018-05-27T10:28:02.422Z,22.98
2018-05-27T10:30:30.341Z,22.41
2018-05-27T10:32:58.046Z,22.89
2018-05-27T10:35:25.711Z,23.06
2018-05-27T10:37:53.334Z,23.16
2018-05-27T10:40:21.071Z,23.22
2018-05-27T10:42:48.774Z,23.30
2018-05-27T10:45:16.468Z,23.33
2018-05-27T10:47:44.191Z,23.43
2018-05-27T10:50:11.992Z,23.50
2018-05-27T10:52:39.683Z,23.84
2018-05-27T10:55:07.327Z,23.75
2018-05-27T10:57:35.028Z,23.77
2018-05-27T11:00:02.695Z,23.93
2018-05-27T11:02:30.337Z,23.72
2018-05-27T11:04:58.032Z,23.28
2018-05-27T11:07:25.701Z,23.23
2018-05-27T11:09:53.354Z,23.50
2018-05-27T11:12:20.980Z,23.65
2018-05-27T11:14:48.659Z,23.66
2018-05-27T11:17:16.332Z,23.71
2018-05-27T11:19:44.016Z,23.64
2018-05-27T11:22:11.666Z,23.51
2018-05-27T11:24:39.310Z,23.14
2018-05-27T11:27:06.993Z,22.96
2018-05-27T11:29:34.672Z,22.99
2018-05-27T11:32:02.341Z,23.23
2018-05-27T11:34:30.029Z,23.28
2018-05-27T11:36:57.711Z,23.35
2018-05-27T11:39:25.465Z,23.33
2018-05-27T11:41:53.188Z,22.83
2018-05-27T11:44:20.867Z,23.07
2018-05-27T11:46:48.505Z,23.45
2018-05-27T11:49:16.209Z,23.40
2018-05-27T11:51:43.905Z,23.41
2018-05-27T11:54:11.645Z,23.55
2018-05-27T11:56:39.320Z,22.98
2018-05-27T11:59:06.990Z,23.20
2018-05-27T12:01:34.663Z,23.29
2018-05-27T12:04:02.286Z,23.39
2018-05-27T12:06:29.946Z,23.45
2018-05-27T12:08:57.637Z,23.44
2018-05-27T12:11:25.318Z,23.23
2018-05-27T12:13:54.128Z,23.46
2018-05-27T12:16:21.877Z,23.36
2018-05-27T12:18:50.570Z,23.51
2018-05-27T12:21:18.194Z,23.38
2018-05-27T12:23:45.875Z,23.41
2018-05-27T12:26:13.517Z,23.38
2018-05-27T12:28:41.486Z,23.40
2018-05-27T12:31:09.166Z,22.85
2018-05-27T12:33:36.840Z,23.17
2018-05-27T12:36:04.688Z,23.35
2018-05-27T12:38:32.724Z,23.41
2018-05-27T12:41:00.813Z,23.56
2018-05-27T12:43:28.472Z,23.61
2018-05-27T12:45:56.143Z,23.39
2018-05-27T12:48:23.795Z,23.52
2018-05-27T12:50:51.562Z,23.39
2018-05-27T12:53:19.250Z,23.00
2018-05-27T12:55:47.981Z,23.13
2018-05-27T12:58:15.621Z,23.33
2018-05-27T13:00:43.386Z,23.24
2018-05-27T13:03:11.039Z,23.05
2018-05-27T13:05:38.721Z,23.15
2018-05-27T13:08:06.374Z,22.99
2018-05-27T13:10:34.028Z,22.97
2018-05-27T13:13:01.682Z,22.85
2018-05-27T13:15:29.332Z,22.93
2018-05-27T13:18:00.725Z,23.23
2018-05-27T13:20:28.409Z,23.46
2018-05-27T13:22:57.310Z,23.17
2018-05-27T13:25:25.450Z,22.95
2018-05-27T13:27:53.075Z,23.08
2018-05-27T13:30:20.731Z,23.08
2018-05-27T13:32:48.422Z,23.22
2018-05-27T13:35:16.063Z,23.36
2018-05-27T13:37:43.720Z,23.21
2018-05-27T13:40:11.379Z,23.43
2018-05-27T13:42:39.065Z,23.00
2018-05-27T13:45:19.549Z,23.03
2018-05-27T13:47:47.186Z,23.00
2018-05-27T13:50:14.856Z,23.31
2018-05-27T13:52:42.518Z,23.31
2018-05-27T13:55:10.199Z,23.18
2018-05-27T13:57:37.839Z,23.25
2018-05-27T14:00:05.479Z,23.30
2018-05-27T14:02:33.118Z,23.36
2018-05-27T14:05:00.765Z,23.41
2018-05-27T14:07:28.409Z,23.41
2018-05-27T14:09:56.227Z,23.37
2018-05-27T14:12:23.868Z,23.44
2018-05-27T14:14:51.508Z,23.38
2018-05-27T14:17:19.201Z,23.35
2018-05-27T14:19:46.893Z,23.30
2018-05-27T14:22:14.576Z,23.20
2018-05-27T14:24:42.320Z,23.20
2018-05-27T14:27:09.949Z,23.22
2018-05-27T14:29:37.704Z,22.92
2018-05-27T14:32:05.368Z,22.88
2018-05-27T14:34:33.101Z,22.72
2018-05-27T14:37:00.801Z,22.54
2018-05-27T14:39:29.339Z,22.47
2018-05-27T14:41:57.007Z,22.39
2018-05-27T14:44:27.633Z,22.51
2018-05-27T14:46:55.411Z,22.55
2018-05-27T14:49:23.095Z,22.34
2018-05-27T14:51:50.782Z,22.57
2018-05-27T14:54:18.491Z,22.50
2018-05-27T14:56:46.186Z,22.50
2018-05-27T14:59:13.882Z,22.54
2018-05-27T15:01:41.554Z,22.68
2018-05-27T15:04:09.265Z,22.70
2018-05-27T15:06:36.926Z,22.70
2018-05-27T15:09:04.660Z,22.66
2018-05-27T15:11:32.329Z,22.68
2018-05-27T15:14:00.086Z,22.61
2018-05-27T15:16:27.782Z,22.47
2018-05-27T15:18:55.499Z,22.49
2018-05-27T15:21:23.392Z,22.65
2018-05-27T15:23:51.193Z,22.44
2018-05-27T15:26:18.898Z,22.33
2018-05-27T15:28:46.580Z,22.26
2018-05-27T15:31:14.450Z,22.18
2018-05-27T15:33:42.282Z,22.14
2018-05-27T15:36:10.111Z,22.11
2018-05-27T15:38:37.803Z,21.97
2018-05-27T15:41:05.505Z,22.02
2018-05-27T15:43:33.217Z,21.80
2018-05-27T15:46:00.999Z,21.80
2018-05-27T15:48:29.573Z,21.76
2018-05-27T15:50:57.728Z,21.86
2018-05-27T15:53:26.549Z,21.79
2018-05-27T15:55:54.906Z,21.62
2018-05-27T15:58:22.984Z,21.66
2018-05-27T16:00:50.788Z,21.58
2018-05-27T16:03:18.543Z,21.44
2018-05-27T16:05:47.085Z,21.44
2018-05-27T16:08:15.328Z,21.49
2018-05-27T16:10:50.599Z,21.51
2018-05-27T16:13:18.688Z,21.38
2018-05-27T16:15:46.496Z,21.37
2018-05-27T16:18:14.834Z,21.22
2018-05-27T16:20:43.113Z,21.19
2018-05-27T16:23:10.802Z,21.19
2018-05-27T16:25:38.505Z,21.11
2018-05-27T16:28:06.198Z,21.15
2018-05-27T16:30:33.854Z,21.18
2018-05-27T16:33:01.518Z,21.18
2018-05-27T16:35:29.194Z,21.03
2018-05-27T16:37:56.969Z,21.07
2018-05-27T16:40:28.153Z,21.08
2018-05-27T16:42:56.649Z,21.07
2018-05-27T16:45:24.423Z,21.08
2018-05-27T16:47:52.226Z,21.01
2018-05-27T16:50:20.601Z,20.85
2018-05-27T16:52:48.383Z,20.79
2018-05-27T16:55:16.049Z,20.73
2018-05-27T16:57:44.046Z,20.71
2018-05-27T17:00:11.751Z,20.68
2018-05-27T17:02:39.408Z,20.59
2018-05-27T17:05:07.088Z,20.49
2018-05-27T17:07:34.771Z,20.57
2018-05-27T17:10:04.861Z,20.60
2018-05-27T17:12:32.515Z,20.57
2018-05-27T17:15:00.280Z,20.51
2018-05-27T17:17:27.999Z,20.44
2018-05-27T17:19:55.686Z,20.39
2018-05-27T17:22:25.760Z,20.47
2018-05-27T17:24:53.448Z,20.34
2018-05-27T17:27:24.562Z,20.29
2018-05-27T17:29:52.272Z,20.27
2018-05-27T17:32:19.922Z,20.08
2018-05-27T17:34:47.633Z,19.86
2018-05-27T17:37:15.338Z,19.78
2018-05-27T17:39:42.997Z,19.75
2018-05-27T17:42:10.673Z,19.73
2018-05-27T17:44:38.303Z,19.54
2018-05-27T17:47:05.981Z,19.48
2018-05-27T17:49:33.658Z,19.55
2018-05-27T17:52:01.429Z,19.57
2018-05-27T17:54:29.165Z,19.54
2018-05-27T17:56:56.870Z,19.42
2018-05-27T17:59:24.516Z,19.30
2018-05-27T18:01:52.216Z,19.24
2018-05-27T18:04:19.877Z,19.11
2018-05-27T18:06:47.503Z,19.04
2018-05-27T18:09:15.176Z,19.03
2018-05-27T18:11:42.882Z,19.12
2018-05-27T18:14:11.174Z,19.07
2018-05-27T18:16:38.834Z,19.09
2018-05-27T18:19:06.504Z,19.02
2018-05-27T18:21:34.217Z,19.00
2018-05-27T18:24:01.934Z,19.06
2018-05-27T18:26:29.585Z,19.07
2018-05-27T18:28:57.286Z,18.90
2018-05-27T18:31:24.966Z,18.87
2018-05-27T18:33:52.653Z,18.84
2018-05-27T18:36:20.326Z,18.77
2018-05-27T18:38:48.029Z,18.70
2018-05-27T18:41:15.689Z,18.60
2018-05-27T18:43:43.336Z,18.59
2018-05-27T18:46:11.039Z,18.50
2018-05-27T18:48:38.719Z,18.39
2018-05-27T18:51:06.407Z,18.45
2018-05-27T18:53:34.081Z,18.46
2018-05-27T18:56:01.775Z,18.26
2018-05-27T18:58:29.440Z,18.16
2018-05-27T19:00:57.107Z,18.10
2018-05-27T19:03:24.765Z,18.12
2018-05-27T19:05:52.426Z,18.12
2018-05-27T19:08:20.088Z,18.04
2018-05-27T19:10:47.733Z,17.93
2018-05-27T19:13:15.422Z,17.82
2018-05-27T19:15:43.151Z,17.83
2018-05-27T19:18:10.836Z,17.79
2018-05-27T19:20:38.502Z,17.71
2018-05-27T19:23:06.129Z,17.60
2018-05-27T19:25:33.769Z,17.56
2018-05-27T19:28:01.462Z,17.56
2018-05-27T19:30:29.115Z,17.55
2018-05-27T19:32:56.757Z,17.46
2018-05-27T19:35:24.438Z,17.42
2018-05-27T19:37:52.090Z,17.46
2018-05-27T19:40:19.725Z,17.36
2018-05-27T19:42:49.474Z,17.18
2018-05-27T19:45:17.116Z,17.07
2018-05-27T19:47:44.761Z,17.07
2018-05-27T19:50:12.406Z,16.94
2018-05-27T19:52:40.041Z,16.85
2018-05-27T19:55:07.728Z,16.81
2018-05-27T19:57:35.434Z,16.81
2018-05-27T20:00:03.070Z,16.79
2018-05-27T20:02:30.883Z,16.72
2018-05-27T20:04:59.162Z,16.77
2018-05-27T20:07:26.809Z,16.64
2018-05-27T20:09:54.524Z,16.59
2018-05-27T20:12:22.150Z,16.50
2018-05-27T20:14:49.788Z,16.44
2018-05-27T20:17:17.463Z,16.42
2018-05-27T20:19:45.107Z,16.36
2018-05-27T20:22:12.753Z,16.36
2018-05-27T20:24:40.750Z,16.37
2018-05-27T20:27:08.416Z,16.37
2018-05-27T20:29:36.062Z,16.32
2018-05-27T20:32:03.736Z,16.25
2018-05-27T20:34:31.375Z,16.27
2018-05-27T20:36:59.038Z,16.18
2018-05-27T20:39:26.695Z,16.17
2018-05-27T20:41:54.342Z,16.11
2018-05-27T20:44:21.982Z,16.08
2018-05-27T20:46:49.659Z,15.98
2018-05-27T20:49:17.302Z,15.95
2018-05-27T20:51:44.985Z,15.98
2018-05-27T20:54:12.639Z,15.95
2018-05-27T20:56:40.602Z,15.99
2018-05-27T20:59:08.231Z,15.92
2018-05-27T21:01:35.871Z,15.97
2018-05-27T21:04:03.571Z,15.98
2018-05-27T21:06:31.213Z,15.92
2018-05-27T21:08:58.855Z,15.92
2018-05-27T21:11:26.509Z,15.79
2018-05-27T21:13:54.149Z,15.67
2018-05-27T21:16:21.777Z,15.71
2018-05-27T21:18:49.435Z,15.77
2018-05-27T21:21:17.069Z,15.77
2018-05-27T21:23:44.701Z,15.74
2018-05-27T21:26:12.354Z,15.59
2018-05-27T21:28:39.998Z,15.61
2018-05-27T21:31:07.640Z,15.54
2018-05-27T21:33:35.275Z,15.45
2018-05-27T21:36:02.908Z,15.48
2018-05-27T21:38:30.547Z,15.49
2018-05-27T21:40:58.165Z,15.60
2018-05-27T21:43:25.805Z,15.62
2018-05-27T21:45:53.439Z,15.61
2018-05-27T21:48:21.099Z,15.60
2018-05-27T21:50:48.740Z,15.62
2018-05-27T21:53:16.383Z,15.57
2018-05-27T21:55:44.012Z,15.51
2018-05-27T21:58:11.664Z,15.51
2018-05-27T22:00:40.838Z,15.53
2018-05-27T22:03:08.476Z,15.49
2018-05-27T22:05:36.116Z,15.46
2018-05-27T22:08:03.764Z,15.41
2018-05-27T22:10:31.395Z,15.40
2018-05-27T22:12:59.037Z,15.44
2018-05-27T22:15:26.661Z,15.47
2018-05-27T22:17:54.333Z,15.45
2018-05-27T22:20:21.976Z,15.47
2018-05-27T22:22:49.613Z,15.55
2018-05-27T22:25:17.266Z,15.58
2018-05-27T22:27:44.904Z,15.57
2018-05-27T22:30:12.572Z,15.55
2018-05-27T22:32:40.210Z,15.54
2018-05-27T22:35:07.843Z,15.52
2018-05-27T22:37:35.477Z,15.51
2018-05-27T22:40:03.113Z,15.52
2018-05-27T22:42:30.729Z,15.49
2018-05-27T22:44:58.400Z,15.50
2018-05-27T22:47:26.043Z,15.50
2018-05-27T22:49:53.671Z,15.52
2018-05-27T22:52:21.311Z,15.54
2018-05-27T22:54:48.940Z,15.60
2018-05-27T22:57:16.572Z,15.67
2018-05-27T22:59:44.223Z,15.71
2018-05-27T23:02:11.882Z,15.72
2018-05-27T23:04:39.517Z,15.73
2018-05-27T23:07:07.164Z,15.72
2018-05-27T23:09:34.810Z,15.76
2018-05-27T23:12:02.461Z,15.79
2018-05-27T23:14:30.090Z,15.80
2018-05-27T23:16:57.755Z,15.83
2018-05-27T23:19:25.408Z,15.87
2018-05-27T23:21:53.055Z,15.94
2018-05-27T23:24:20.709Z,15.97
2018-05-27T23:26:48.347Z,15.96
2018-05-27T23:29:16.013Z,15.95
2018-05-27T23:31:43.654Z,15.99
2018-05-27T23:34:11.308Z,16.04
2018-05-27T23:36:38.988Z,16.11
2018-05-27T23:39:06.635Z,16.20
2018-05-27T23:41:34.285Z,16.24
2018-05-27T23:44:01.935Z,16.28
2018-05-27T23:46:29.582Z,16.31
2018-05-27T23:48:57.230Z,16.42
2018-05-27T23:51:24.872Z,16.46
2018-05-27T23:53:52.511Z,16.49
2018-05-27T23:56:20.173Z,16.55
2018-05-27T23:58:47.838Z,16.60
